Time;durP1;ratioP1;P1;durP2;ratioP2;P2;SDS_P1;SDS_P2;PMS_P1;PMS_P2;Temp;Humidity;BMP_temperature;BMP_pressure;BME280_temperature;BME280_humidity;BME280_pressure;Samples;Min_cycle;Max_cycle;Signal;HPM_P1;HPM_P2
2022/12/14 00:00:02;;;;;;;51.60;39.90;;;;;;;-3.86;69.82;100105.45;107929;1287;21943;-82
2022/12/14 00:03:01;;;;;;;57.50;42.60;;;;;;;-4.04;69.99;100101.23;108173;1272;21932;-83
2022/12/14 00:05:30;;;;;;;54.50;44.70;;;;;;;-4.17;70.07;100098.63;108360;1280;22733;-82
2022/12/14 00:07:59;;;;;;;69.20;53.00;;;;;;;-4.29;70.08;100097.90;108358;1275;21946;-83
2022/12/14 00:10:28;;;;;;;78.30;56.60;;;;;;;-4.45;70.04;100094.20;108521;1280;22011;-81
2022/12/14 00:12:57;;;;;;;86.80;63.30;;;;;;;-4.61;70.17;100094.06;108429;1283;23016;-81
2022/12/14 00:15:26;;;;;;;102.40;74.40;;;;;;;-4.77;70.22;100093.08;108278;1280;21934;-81
2022/12/14 00:17:55;;;;;;;99.20;69.90;;;;;;;-4.94;70.22;100092.05;108260;1283;22107;-81
2022/12/14 00:20:26;;;;;;;96.80;67.60;;;;;;;-5.14;70.28;100091.81;108558;1281;21921;-81
2022/12/14 00:22:56;;;;;;;101.10;69.70;;;;;;;-5.31;70.28;100090.59;108249;1283;22725;-81
2022/12/14 00:25:25;;;;;;;89.20;66.70;;;;;;;-5.45;70.40;100090.95;108512;1280;22153;-82
2022/12/14 00:27:54;;;;;;;92.20;66.10;;;;;;;-5.59;70.47;100084.70;108228;1283;23596;-83
2022/12/14 00:30:23;;;;;;;95.60;66.00;;;;;;;-5.69;70.66;100082.77;108436;1274;21934;-83
2022/12/14 00:32:52;;;;;;;96.60;64.80;;;;;;;-5.79;70.84;100080.33;108300;1283;22066;-82
2022/12/14 00:35:21;;;;;;;94.60;65.10;;;;;;;-5.87;70.89;100075.89;108536;1280;21941;-83
2022/12/14 00:37:50;;;;;;;95.40;65.20;;;;;;;-5.98;70.75;100075.14;108559;1281;21964;-81
2022/12/14 00:40:19;;;;;;;103.20;66.00;;;;;;;-6.11;70.77;100073.48;108524;1280;21935;-82
2022/12/14 00:42:48;;;;;;;91.80;62.50;;;;;;;-6.24;70.85;100072.80;108555;1283;22397;-82
2022/12/14 00:45:16;;;;;;;103.30;66.50;;;;;;;-6.39;71.01;100072.94;108428;1280;21933;-81
2022/12/14 00:47:45;;;;;;;98.50;63.50;;;;;;;-6.52;71.02;100070.39;108475;1282;21957;-81
2022/12/14 00:50:14;;;;;;;101.40;66.10;;;;;;;-6.67;71.07;100070.67;108383;1281;21946;-81
2022/12/14 00:52:42;;;;;;;98.70;65.30;;;;;;;-6.81;71.19;100069.94;108533;1281;23678;-82
2022/12/14 00:55:11;;;;;;;114.50;64.80;;;;;;;-6.92;71.34;100065.41;108439;1284;22915;-81
2022/12/14 00:57:40;;;;;;;99.60;65.30;;;;;;;-7.02;71.35;100065.48;108567;1277;22317;-81
2022/12/14 01:00:10;;;;;;;93.70;66.30;;;;;;;-7.09;71.51;100069.00;108556;1281;22118;-81
2022/12/14 01:02:39;;;;;;;100.20;65.40;;;;;;;-7.16;71.55;100071.33;108552;1283;22813;-81
2022/12/14 01:05:09;;;;;;;95.70;64.20;;;;;;;-7.24;71.64;100071.09;108381;1281;21930;-81
2022/12/14 01:07:38;;;;;;;95.30;63.60;;;;;;;-7.31;71.66;100066.84;108401;1283;21933;-80
2022/12/14 01:10:07;;;;;;;94.80;63.70;;;;;;;-7.32;71.71;100064.60;108536;1281;21940;-79
2022/12/14 01:12:36;;;;;;;99.90;68.50;;;;;;;-7.35;71.81;100063.00;108382;1284;24269;-80
2022/12/14 01:15:06;;;;;;;102.10;66.70;;;;;;;-7.38;71.82;100062.73;108581;1283;23028;-78
2022/12/14 01:17:34;;;;;;;101.00;65.80;;;;;;;-7.38;72.04;100063.58;108403;1283;23584;-83
2022/12/14 01:20:04;;;;;;;98.10;65.90;;;;;;;-7.35;72.01;100067.71;108572;1284;22719;-82
2022/12/14 01:22:33;;;;;;;97.10;63.50;;;;;;;-7.38;71.77;100062.05;108413;1279;21937;-80
2022/12/14 01:25:04;;;;;;;98.80;65.80;;;;;;;-7.43;71.88;100059.36;108562;1283;21978;-82
2022/12/14 01:27:32;;;;;;;103.10;69.00;;;;;;;-7.51;71.81;100055.77;108592;1283;22720;-80
2022/12/14 01:30:03;;;;;;;103.30;69.40;;;;;;;-7.61;71.78;100053.09;108547;1284;21942;-80
2022/12/14 01:32:33;;;;;;;99.90;64.30;;;;;;;-7.72;71.76;100050.38;108608;1282;21938;-81
2022/12/14 01:35:02;;;;;;;94.50;64.40;;;;;;;-7.80;71.90;100050.64;108560;1281;22020;-80
2022/12/14 01:37:31;;;;;;;101.60;66.40;;;;;;;-7.84;72.04;100047.32;108496;1282;21969;-81
2022/12/14 01:40:00;;;;;;;104.20;66.80;;;;;;;-7.86;72.11;100047.24;108479;1281;21938;-81
2022/12/14 01:42:29;;;;;;;102.20;66.70;;;;;;;-7.92;72.10;100047.39;108609;1280;24264;-80
2022/12/14 01:44:58;;;;;;;102.40;68.60;;;;;;;-7.97;72.11;100051.27;108351;1284;23792;-80
2022/12/14 01:47:39;;;;;;;105.20;68.20;;;;;;;-8.03;72.21;100051.42;108626;1283;21960;-81
2022/12/14 01:50:24;;;;;;;101.60;68.10;;;;;;;-8.09;72.22;100052.73;108404;1284;21909;-80
2022/12/14 01:53:01;;;;;;;106.00;68.00;;;;;;;-8.13;72.27;100049.58;108482;1283;22134;-80
2022/12/14 01:55:37;;;;;;;110.90;68.20;;;;;;;-8.16;72.39;100043.73;108234;1284;21961;-81
2022/12/14 01:58:25;;;;;;;101.20;65.60;;;;;;;-8.16;72.41;100039.52;108466;1282;23071;-80
2022/12/14 02:00:57;;;;;;;94.20;65.60;;;;;;;-8.17;72.41;100034.94;108348;1284;21931;-81
2022/12/14 02:03:35;;;;;;;108.80;70.70;;;;;;;-8.20;72.39;100036.35;108462;1275;23049;-82
2022/12/14 02:06:18;;;;;;;116.20;71.80;;;;;;;-8.25;72.36;100038.05;108632;1283;21931;-81
2022/12/14 02:08:51;;;;;;;109.40;67.90;;;;;;;-8.28;72.42;100044.53;108505;1281;22766;-84
2022/12/14 02:11:37;;;;;;;105.90;66.10;;;;;;;-8.28;72.50;100047.42;108566;1280;21949;-83
2022/12/14 02:14:06;;;;;;;112.80;71.70;;;;;;;-8.26;72.57;100047.66;108394;1281;21952;-83
2022/12/14 02:16:37;;;;;;;114.30;72.50;;;;;;;-8.25;72.57;100053.09;108291;1285;21935;-82
2022/12/14 02:19:06;;;;;;;109.90;69.90;;;;;;;-8.26;72.45;100053.05;108358;1284;21952;-83
2022/12/14 02:22:14;;;;;;;109.80;70.00;;;;;;;-8.28;72.47;100053.15;108390;1284;21939;-82
2022/12/14 02:25:10;;;;;;;115.90;70.00;;;;;;;-8.34;72.40;100051.95;108577;1283;21943;-83
2022/12/14 02:28:09;;;;;;;112.30;70.90;;;;;;;-8.42;72.35;100053.55;108564;1283;21971;-82
2022/12/14 02:30:41;;;;;;;114.20;71.00;;;;;;;-8.52;72.28;100053.89;108550;1284;23001;-81
2022/12/14 02:33:52;;;;;;;116.70;75.50;;;;;;;-8.60;72.33;100045.52;108365;1284;21952;-82
2022/12/14 02:36:38;;;;;;;110.70;68.00;;;;;;;-8.66;72.32;100042.47;108447;1274;21956;-81
2022/12/14 02:39:27;;;;;;;103.30;67.30;;;;;;;-8.70;72.40;100040.29;108416;1283;21954;-80
2022/12/14 02:42:19;;;;;;;111.50;68.70;;;;;;;-8.77;72.52;100037.52;108507;1270;23064;-79
2022/12/14 02:45:09;;;;;;;106.20;65.10;;;;;;;-8.83;72.45;100035.28;108277;1284;22815;-80
2022/12/14 02:47:58;;;;;;;113.80;68.20;;;;;;;-8.87;72.55;100030.25;108546;1282;22188;-80
2022/12/14 02:51:07;;;;;;;102.40;65.60;;;;;;;-8.91;72.58;100029.44;108217;1283;23071;-80
2022/12/14 02:53:55;;;;;;;103.50;63.80;;;;;;;-8.98;72.67;100026.84;108482;1283;21936;-79
2022/12/14 02:56:36;;;;;;;101.60;62.70;;;;;;;-9.01;72.71;100029.09;108498;1281;21957;-81
2022/12/14 02:59:07;;;;;;;105.00;64.90;;;;;;;-9.03;72.64;100027.84;108551;1281;22932;-82
2022/12/14 03:01:37;;;;;;;100.30;67.20;;;;;;;-9.03;72.65;100029.70;108224;1283;21947;-83
2022/12/14 03:04:07;;;;;;;106.00;68.10;;;;;;;-9.04;72.65;100030.67;108294;1283;22718;-83
2022/12/14 03:06:36;;;;;;;103.90;64.10;;;;;;;-9.09;72.54;100030.50;108407;1282;23592;-82
2022/12/14 03:09:16;;;;;;;110.10;66.40;;;;;;;-9.13;72.59;100032.89;108402;1277;21952;-82
2022/12/14 03:11:54;;;;;;;104.30;66.70;;;;;;;-9.16;72.53;100034.11;108381;1282;21933;-81
2022/12/14 03:14:42;;;;;;;113.30;71.40;;;;;;;-9.19;72.58;100029.09;108546;1280;21932;-82
2022/12/14 03:17:17;;;;;;;117.90;68.40;;;;;;;-9.25;72.55;100026.55;108353;1282;22928;-81
2022/12/14 03:20:12;;;;;;;108.30;68.80;;;;;;;-9.23;72.70;100022.91;108414;1282;23794;-80
2022/12/14 03:22:46;;;;;;;114.40;71.50;;;;;;;-9.16;72.95;100019.12;108534;1280;21976;-81
2022/12/14 03:25:45;;;;;;;112.90;69.00;;;;;;;-9.07;73.07;100013.04;108482;1280;23595;-81
2022/12/14 03:28:25;;;;;;;121.70;73.40;;;;;;;-8.98;73.03;100014.02;107270;1294;23200;-80
2022/12/14 03:31:09;;;;;;;123.10;76.10;;;;;;;-8.91;73.03;100016.80;107165;1294;23078;-83
2022/12/14 03:33:41;;;;;;;120.00;72.10;;;;;;;-8.89;72.83;100014.83;107255;1294;22418;-81
2022/12/14 03:36:31;;;;;;;118.70;75.40;;;;;;;-8.90;72.74;100013.30;107210;1295;22391;-80
2022/12/14 03:39:05;;;;;;;119.70;76.50;;;;;;;-8.87;72.69;100012.04;107182;1295;21970;-81
2022/12/14 03:42:06;;;;;;;120.60;73.80;;;;;;;-8.84;72.65;100007.95;107264;1294;23136;-82
2022/12/14 03:45:02;;;;;;;111.30;70.90;;;;;;;-8.82;72.76;100010.69;107256;1294;23718;-81
2022/12/14 03:48:14;;;;;;;120.90;74.40;;;;;;;-8.79;72.63;100016.70;107568;1291;22410;-82
2022/12/14 03:50:51;;;;;;;105.00;67.40;;;;;;;-8.82;72.56;100013.70;107751;1291;21981;-80
2022/12/14 03:53:46;;;;;;;115.00;72.30;;;;;;;-8.82;72.55;100015.58;107754;1290;21975;-81
2022/12/14 03:56:15;;;;;;;111.50;72.40;;;;;;;-8.88;72.33;100008.13;107691;1291;21991;-80
2022/12/14 03:59:24;;;;;;;107.20;67.50;;;;;;;-8.93;72.24;100007.29;107620;1291;23073;-79
2022/12/14 04:02:45;;;;;;;115.60;70.70;;;;;;;-8.99;72.17;100001.84;107593;1290;21965;-82
2022/12/14 04:05:54;;;;;;;111.20;69.50;;;;;;;-9.08;72.06;100002.88;107508;1288;21998;-80
2022/12/14 04:08:40;;;;;;;110.00;69.40;;;;;;;-9.13;72.13;100002.04;107536;1292;21970;-79
2022/12/14 04:20:19;;;;;;;109.00;71.20;;;;;;;-9.06;71.95;99995.54;107455;1292;21947;-81
2022/12/14 04:22:57;;;;;;;115.10;71.80;;;;;;;-9.13;71.67;99993.77;107475;1292;21979;-81
2022/12/14 04:31:47;;;;;;;121.10;79.50;;;;;;;-9.38;71.57;99999.11;107463;1295;23737;-81
2022/12/14 04:34:20;;;;;;;130.70;85.50;;;;;;;-9.45;71.78;100002.74;107499;1294;21947;-82
2022/12/14 04:36:57;;;;;;;128.10;81.40;;;;;;;-9.51;71.65;99999.48;107537;1288;23632;-79
2022/12/14 04:39:38;;;;;;;119.80;75.70;;;;;;;-9.56;71.74;99994.55;107798;1289;22381;-82
2022/12/14 04:42:09;;;;;;;124.50;82.60;;;;;;;-9.59;71.97;99988.39;107764;1291;23652;-82
2022/12/14 04:44:48;;;;;;;138.00;84.20;;;;;;;-9.56;71.87;99986.95;108239;1280;21934;-81
2022/12/14 04:47:18;;;;;;;120.10;79.10;;;;;;;-9.57;71.94;99983.06;108535;1280;21936;-82
2022/12/14 04:50:05;;;;;;;123.50;76.80;;;;;;;-9.62;71.93;99972.80;108451;1282;22424;-82
2022/12/14 04:52:45;;;;;;;112.70;74.70;;;;;;;-9.63;71.98;99972.27;108634;1280;22870;-81
2022/12/14 04:55:27;;;;;;;119.90;78.80;;;;;;;-9.63;71.95;99965.82;108589;1280;22876;-81
2022/12/14 04:58:11;;;;;;;115.60;75.20;;;;;;;-9.68;71.81;99966.35;108521;1280;24452;-82
2022/12/14 05:01:18;;;;;;;114.20;73.90;;;;;;;-9.75;71.75;99970.11;108351;1282;22251;-81
2022/12/14 05:04:10;;;;;;;126.30;76.80;;;;;;;-9.84;71.61;99969.94;108565;1279;22676;-82
2022/12/14 05:06:59;;;;;;;124.40;76.20;;;;;;;-9.88;71.86;99968.11;108483;1280;23767;-81
2022/12/14 05:09:38;;;;;;;119.80;75.20;;;;;;;-9.93;71.67;99969.27;108510;1280;21951;-81
2022/12/14 05:12:17;;;;;;;130.20;81.00;;;;;;;-9.96;71.91;99968.13;108288;1280;21929;-81
2022/12/14 05:15:09;;;;;;;140.60;86.30;;;;;;;-9.99;71.89;99962.29;108294;1281;21939;-81
2022/12/14 05:17:40;;;;;;;132.50;84.00;;;;;;;-10.04;71.95;99954.69;108583;1280;22690;-80
2022/12/14 05:20:19;;;;;;;124.60;82.00;;;;;;;-10.06;72.05;99954.11;108522;1280;21940;-81
2022/12/14 05:22:49;;;;;;;124.30;78.60;;;;;;;-10.04;72.09;99953.86;108423;1280;21946;-82
2022/12/14 05:25:18;;;;;;;120.10;78.30;;;;;;;-10.03;72.09;99950.52;108473;1277;21957;-84
2022/12/14 05:27:46;;;;;;;112.40;74.60;;;;;;;-10.04;72.15;99947.63;108605;1280;22996;-82
2022/12/14 05:30:15;;;;;;;127.40;77.20;;;;;;;-10.05;72.07;99949.79;108622;1279;21948;-83
2022/12/14 05:32:44;;;;;;;124.10;83.30;;;;;;;-10.05;72.12;99950.30;108448;1282;23674;-83
2022/12/14 05:35:14;;;;;;;125.50;82.50;;;;;;;-10.02;72.17;99955.95;108528;1280;21925;-82
2022/12/14 05:37:43;;;;;;;131.80;87.80;;;;;;;-10.01;72.01;99958.86;108474;1280;21964;-83
2022/12/14 05:40:12;;;;;;;140.80;86.00;;;;;;;-10.03;71.94;99956.10;108297;1282;21934;-81
2022/12/14 05:42:41;;;;;;;127.60;84.70;;;;;;;-10.05;72.03;99952.80;108579;1278;23000;-81
2022/12/14 05:45:15;;;;;;;130.80;82.70;;;;;;;-10.07;71.94;99946.52;108393;1281;22936;-80
2022/12/14 05:47:44;;;;;;;138.40;88.90;;;;;;;-10.10;71.86;99944.70;108477;1280;21972;-80
2022/12/14 05:50:13;;;;;;;143.00;88.00;;;;;;;-10.11;71.86;99943.98;108559;1279;23646;-80
2022/12/14 05:52:41;;;;;;;163.40;97.70;;;;;;;-10.11;72.06;99944.83;108519;1273;21941;-81
2022/12/14 05:55:10;;;;;;;168.00;102.10;;;;;;;-10.12;71.89;99947.50;108536;1280;23083;-80
2022/12/14 05:57:39;;;;;;;155.10;97.90;;;;;;;-10.14;71.89;99948.91;108436;1279;23319;-81
2022/12/14 06:00:09;;;;;;;149.40;98.50;;;;;;;-10.11;71.94;99948.18;108566;1279;23084;-82
2022/12/14 06:02:38;;;;;;;140.20;87.80;;;;;;;-10.09;71.92;99944.89;108511;1280;21924;-80
2022/12/14 06:05:07;;;;;;;153.70;92.20;;;;;;;-10.11;71.86;99943.14;108432;1268;21927;-80
2022/12/14 06:07:36;;;;;;;146.70;90.60;;;;;;;-10.14;71.83;99940.67;108552;1279;21951;-81
2022/12/14 06:10:05;;;;;;;161.00;98.00;;;;;;;-10.18;71.77;99938.67;108337;1279;23578;-82
2022/12/14 06:12:34;;;;;;;187.10;115.70;;;;;;;-10.19;71.76;99937.78;108571;1280;21977;-83
2022/12/14 06:15:04;;;;;;;211.90;129.60;;;;;;;-10.15;71.98;99939.63;108530;1280;23072;-81
2022/12/14 06:17:32;;;;;;;189.60;115.30;;;;;;;-10.11;71.94;99943.16;108321;1271;22150;-81
2022/12/14 06:20:01;;;;;;;173.20;106.80;;;;;;;-10.13;71.71;99942.41;108423;1280;23615;-82
2022/12/14 06:22:30;;;;;;;194.30;122.10;;;;;;;-10.16;71.76;99940.95;108609;1266;21948;-83
2022/12/14 06:24:59;;;;;;;204.20;121.30;;;;;;;-10.14;71.91;99934.29;108470;1269;21962;-81
2022/12/14 06:27:28;;;;;;;179.40;114.40;;;;;;;-10.06;72.04;99931.39;108466;1280;22395;-79
2022/12/14 06:29:57;;;;;;;187.70;124.40;;;;;;;-9.97;72.15;99929.52;108501;1280;21941;-82
2022/12/14 06:32:25;;;;;;;178.20;113.10;;;;;;;-9.95;71.87;99928.77;108394;1278;23321;-83
2022/12/14 06:34:54;;;;;;;185.30;124.90;;;;;;;-10.00;71.69;99925.90;108486;1282;23067;-83
2022/12/14 06:37:23;;;;;;;167.90;105.50;;;;;;;-10.03;71.82;99925.46;108387;1274;21736;-83
2022/12/14 06:39:52;;;;;;;166.00;104.10;;;;;;;-10.02;71.76;99924.48;108463;1280;22095;-82
2022/12/14 06:42:22;;;;;;;165.90;108.30;;;;;;;-9.98;71.80;99925.63;108506;1280;21977;-83
2022/12/14 06:44:52;;;;;;;161.20;106.70;;;;;;;-9.96;71.77;99919.65;108499;1280;21952;-83
2022/12/14 06:47:21;;;;;;;178.60;110.60;;;;;;;-9.94;71.72;99917.52;108443;1280;23067;-83
2022/12/14 06:49:50;;;;;;;182.50;104.20;;;;;;;-9.95;71.60;99920.67;108501;1280;21968;-84
2022/12/14 06:52:19;;;;;;;191.80;110.10;;;;;;;-9.95;71.69;99914.14;108627;1280;21942;-80
2022/12/14 06:54:54;;;;;;;166.50;99.30;;;;;;;-9.98;71.56;99913.19;108578;1278;23672;-80
2022/12/14 06:57:22;;;;;;;166.40;104.90;;;;;;;-10.01;71.57;99916.28;108275;1279;22149;-79
2022/12/14 06:59:51;;;;;;;166.90;102.60;;;;;;;-10.05;71.57;99915.59;108598;1274;22738;-79
2022/12/14 07:02:20;;;;;;;145.10;92.50;;;;;;;-10.10;71.44;99917.45;108576;1277;21940;-80
2022/12/14 07:04:49;;;;;;;168.30;98.40;;;;;;;-10.11;71.48;99913.71;108565;1277;21938;-79
2022/12/14 07:07:18;;;;;;;167.60;100.70;;;;;;;-10.09;71.55;99907.53;108563;1277;22158;-79
2022/12/14 07:09:47;;;;;;;161.90;96.40;;;;;;;-10.09;71.58;99908.73;108618;1276;21961;-79
2022/12/14 07:12:16;;;;;;;151.40;93.30;;;;;;;-10.09;71.61;99906.89;108650;1277;22267;-79
2022/12/14 07:14:45;;;;;;;150.20;93.10;;;;;;;-10.05;71.61;99902.98;108623;1278;24387;-79
2022/12/14 07:17:13;;;;;;;141.40;87.20;;;;;;;-10.00;71.74;99898.97;108504;1278;23075;-80
2022/12/14 07:19:42;;;;;;;150.40;95.20;;;;;;;-9.95;71.72;99900.51;108580;1276;22488;-80
2022/12/14 07:22:16;;;;;;;150.20;86.40;;;;;;;-9.94;71.69;99895.00;108569;1277;21923;-80
2022/12/14 07:24:45;;;;;;;195.10;108.30;;;;;;;-9.92;71.77;99891.02;108398;1278;24277;-80
2022/12/14 07:27:17;;;;;;;179.90;99.80;;;;;;;-9.91;71.63;99890.36;108378;1277;24406;-80
2022/12/14 07:29:46;;;;;;;163.30;97.20;;;;;;;-9.91;71.64;99885.64;108468;1265;21905;-80
2022/12/14 07:32:15;;;;;;;170.40;102.50;;;;;;;-9.91;71.74;99884.98;108557;1278;21930;-80
2022/12/14 07:34:43;;;;;;;212.10;120.10;;;;;;;-9.89;71.79;99879.98;108489;1279;21949;-81
2022/12/14 07:37:12;;;;;;;176.70;102.50;;;;;;;-9.87;71.81;99882.43;108476;1276;22420;-79
2022/12/14 07:39:41;;;;;;;174.30;102.60;;;;;;;-9.84;71.66;99879.36;108675;1277;21949;-81
2022/12/14 07:42:11;;;;;;;223.60;115.90;;;;;;;-9.80;71.58;99881.17;108303;1278;21953;-83
2022/12/14 07:44:43;;;;;;;206.90;117.00;;;;;;;-9.75;71.79;99884.39;108496;1277;21949;-82
2022/12/14 07:47:12;;;;;;;190.20;108.40;;;;;;;-9.68;71.89;99882.27;108397;1278;21928;-80
2022/12/14 07:49:44;;;;;;;187.90;100.40;;;;;;;-9.61;71.93;99884.05;108402;1277;22705;-80
2022/12/14 07:52:15;;;;;;;182.10;105.90;;;;;;;-9.51;72.02;99881.52;108599;1278;21984;-82
2022/12/14 07:54:47;;;;;;;170.00;102.20;;;;;;;-9.43;72.04;99881.65;108489;1278;21972;-78
2022/12/14 07:57:16;;;;;;;183.90;109.70;;;;;;;-9.33;72.01;99880.82;108606;1270;21986;-81
2022/12/14 07:59:45;;;;;;;198.40;128.70;;;;;;;-9.27;72.04;99877.65;108477;1280;23088;-78
2022/12/14 08:02:14;;;;;;;176.30;104.60;;;;;;;-9.21;72.10;99878.04;108300;1280;23078;-77
2022/12/14 08:04:43;;;;;;;178.80;109.80;;;;;;;-9.13;72.04;99875.92;108482;1280;21918;-80
2022/12/14 08:07:12;;;;;;;180.00;109.20;;;;;;;-9.08;71.91;99871.40;108302;1281;23156;-82
2022/12/14 08:09:40;;;;;;;189.80;109.40;;;;;;;-9.07;71.71;99868.55;108295;1280;22093;-80
2022/12/14 08:12:09;;;;;;;170.40;103.80;;;;;;;-9.09;71.56;99865.45;108413;1280;21977;-79
2022/12/14 08:14:38;;;;;;;171.10;104.60;;;;;;;-9.09;71.42;99868.31;108515;1278;23084;-81
2022/12/14 08:17:07;;;;;;;171.20;103.40;;;;;;;-9.09;71.42;99866.46;108346;1280;21929;-78
2022/12/14 08:19:36;;;;;;;172.00;104.70;;;;;;;-9.12;71.35;99862.31;108453;1280;21967;-78
2022/12/14 08:22:04;;;;;;;151.50;92.50;;;;;;;-9.13;71.25;99861.59;108528;1278;21949;-77
2022/12/14 08:24:34;;;;;;;167.30;99.10;;;;;;;-9.15;71.21;99857.30;108303;1280;22881;-78
2022/12/14 08:27:03;;;;;;;171.10;101.80;;;;;;;-9.16;71.42;99856.62;108561;1279;22831;-80
2022/12/14 08:29:32;;;;;;;181.50;103.70;;;;;;;-9.15;71.35;99858.34;108306;1279;22293;-78
2022/12/14 08:32:01;;;;;;;181.60;105.80;;;;;;;-9.14;71.33;99855.81;108379;1280;23948;-79
2022/12/14 08:34:30;;;;;;;165.60;102.10;;;;;;;-9.13;71.22;99851.48;107357;1280;1257305;-80
2022/12/14 08:36:59;;;;;;;172.60;101.90;;;;;;;-9.11;71.35;99851.23;108393;1275;21956;-79
2022/12/14 08:39:27;;;;;;;156.10;94.30;;;;;;;-9.07;71.44;99850.17;108374;1281;22052;-79
2022/12/14 08:41:56;;;;;;;159.90;95.40;;;;;;;-9.06;71.24;99847.84;108300;1280;22111;-79
2022/12/14 08:44:25;;;;;;;160.00;99.50;;;;;;;-9.06;71.22;99847.84;108359;1280;24278;-80
2022/12/14 08:46:54;;;;;;;163.30;99.00;;;;;;;-9.04;71.28;99847.58;108290;1277;21954;-79
2022/12/14 08:49:23;;;;;;;181.60;105.60;;;;;;;-9.01;71.31;99849.70;108445;1280;23723;-78
2022/12/14 08:51:59;;;;;;;190.40;108.50;;;;;;;-8.97;71.26;99852.17;108597;1277;22110;-79
2022/12/14 08:54:28;;;;;;;157.20;100.00;;;;;;;-8.95;71.32;99852.41;108531;1280;23065;-80
2022/12/14 08:56:57;;;;;;;165.50;102.20;;;;;;;-8.90;71.38;99853.91;108440;1281;21943;-81
2022/12/14 08:59:26;;;;;;;188.80;105.60;;;;;;;-8.84;71.32;99848.53;108386;1281;23737;-79
2022/12/14 09:02:15;;;;;;;175.50;106.30;;;;;;;-8.80;71.34;99846.81;108522;1279;22650;-78
2022/12/14 09:04:43;;;;;;;176.70;109.50;;;;;;;-8.76;71.14;99845.43;108363;1278;21954;-79
2022/12/14 09:07:12;;;;;;;174.40;108.30;;;;;;;-8.70;71.34;99842.09;108511;1280;23579;-78
2022/12/14 09:09:41;;;;;;;176.30;102.90;;;;;;;-8.57;71.43;99838.24;108522;1280;22876;-77
2022/12/14 09:12:10;;;;;;;181.50;106.60;;;;;;;-8.49;71.22;99832.59;108572;1279;21949;-76
2022/12/14 09:14:38;;;;;;;199.00;115.10;;;;;;;-8.43;71.36;99832.27;108406;1280;22829;-78
2022/12/14 09:17:07;;;;;;;198.10;117.60;;;;;;;-8.31;71.53;99829.90;108536;1280;21933;-76
2022/12/14 09:19:36;;;;;;;195.10;116.30;;;;;;;-8.20;71.49;99830.89;108314;1280;21933;-77
2022/12/14 09:22:05;;;;;;;173.00;109.10;;;;;;;-8.05;71.63;99832.00;108384;1268;23492;-77
2022/12/14 09:24:34;;;;;;;185.30;107.60;;;;;;;-7.90;71.67;99830.90;108533;1280;21955;-76
2022/12/14 09:27:03;;;;;;;190.50;108.90;;;;;;;-7.76;71.60;99830.45;108373;1278;22390;-77
2022/12/14 09:29:32;;;;;;;187.60;109.30;;;;;;;-7.63;71.63;99825.73;108469;1279;21949;-79
2022/12/14 09:32:00;;;;;;;160.10;104.70;;;;;;;-7.47;71.80;99821.75;108436;1280;23057;-77
2022/12/14 09:34:32;;;;;;;162.80;103.60;;;;;;;-7.29;71.84;99814.97;108721;1278;22744;-78
2022/12/14 09:37:03;;;;;;;154.40;99.80;;;;;;;-7.09;71.78;99812.91;108501;1277;21937;-77
2022/12/14 09:39:33;;;;;;;180.30;107.70;;;;;;;-6.93;71.73;99808.07;108540;1277;21943;-76
2022/12/14 09:42:07;;;;;;;155.70;102.80;;;;;;;-6.73;71.75;99805.32;108535;1277;22343;-78
2022/12/14 09:44:48;;;;;;;140.00;96.30;;;;;;;-6.53;71.78;99805.94;108654;1276;22428;-79
2022/12/14 09:47:36;;;;;;;153.20;93.80;;;;;;;-6.37;71.35;99799.52;108628;1277;21964;-78
2022/12/14 09:50:13;;;;;;;141.70;91.30;;;;;;;-6.25;71.25;99795.70;108629;1275;22797;-78
2022/12/14 09:52:47;;;;;;;143.10;91.80;;;;;;;-6.16;70.85;99781.65;108356;1266;23048;-78
2022/12/14 09:55:28;;;;;;;148.40;91.70;;;;;;;-6.10;70.73;99776.71;108500;1278;23674;-79
2022/12/14 09:58:27;;;;;;;144.00;91.00;;;;;;;-6.01;70.45;99773.34;108640;1277;21945;-78
2022/12/14 10:01:16;;;;;;;134.70;87.70;;;;;;;-5.96;70.14;99763.59;108503;1277;21967;-78
2022/12/14 10:04:24;;;;;;;114.90;77.80;;;;;;;-5.92;69.74;99760.09;108601;1277;22706;-79
2022/12/14 10:07:23;;;;;;;123.60;79.20;;;;;;;-5.90;69.68;99760.13;108576;1279;22200;-77
2022/12/14 10:10:25;;;;;;;110.80;75.00;;;;;;;-5.86;69.55;99754.95;108584;1279;23059;-78
2022/12/14 10:13:22;;;;;;;106.30;71.20;;;;;;;-5.80;69.72;99748.45;108573;1280;21952;-80
2022/12/14 10:16:09;;;;;;;105.60;69.70;;;;;;;-5.66;69.74;99743.79;108476;1280;22724;-79
2022/12/14 10:18:58;;;;;;;113.60;77.70;;;;;;;-5.57;69.40;99738.36;108170;1285;21949;-80
2022/12/14 10:21:59;;;;;;;104.00;69.30;;;;;;;-5.41;69.58;99733.88;108101;1283;23747;-78
2022/12/14 10:24:42;;;;;;;105.30;72.80;;;;;;;-5.29;69.03;99723.73;108128;1285;21977;-80
2022/12/14 10:27:28;;;;;;;103.90;70.30;;;;;;;-5.22;68.88;99719.78;108242;1284;21983;-75
2022/12/14 10:30:20;;;;;;;110.90;73.00;;;;;;;-5.09;69.06;99716.73;108148;1285;21944;-78
2022/12/14 10:33:04;;;;;;;101.90;66.90;;;;;;;-4.88;69.06;99715.35;107977;1285;21943;-79
2022/12/14 10:35:41;;;;;;;101.50;66.00;;;;;;;-4.73;68.77;99708.95;108265;1283;23683;-80
2022/12/14 10:38:24;;;;;;;97.70;70.90;;;;;;;-4.54;68.85;99702.07;108487;1280;23638;-79
2022/12/14 10:41:05;;;;;;;92.50;64.00;;;;;;;-4.31;68.46;99693.02;108620;1280;21944;-80
2022/12/14 10:44:00;;;;;;;102.00;70.90;;;;;;;-4.19;67.95;99690.95;109483;1280;21919;-79
2022/12/14 10:46:49;;;;;;;104.70;68.30;;;;;;;-4.08;67.79;99687.66;109285;1279;21931;-79
2022/12/14 10:49:34;;;;;;;108.70;70.70;;;;;;;-3.86;67.59;99682.95;109322;1279;21754;-79
2022/12/14 10:52:17;;;;;;;97.30;65.50;;;;;;;-3.57;67.31;99676.08;109406;1283;21952;-77
2022/12/14 10:54:57;;;;;;;96.00;65.90;;;;;;;-3.26;66.75;99676.32;108332;1283;21962;-79
2022/12/14 10:57:27;;;;;;;108.00;74.70;;;;;;;-2.82;66.63;99673.88;108487;1283;23759;-81
2022/12/14 10:59:57;;;;;;;156.00;108.50;;;;;;;-1.99;67.98;99667.71;108414;1283;23597;-82
2022/12/14 11:02:42;;;;;;;136.00;96.30;;;;;;;-0.78;69.87;99657.77;108581;1283;22095;-81
2022/12/14 11:05:36;;;;;;;106.10;74.50;;;;;;;-0.07;67.57;99655.96;108475;1283;21982;-81
2022/12/14 11:08:07;;;;;;;99.00;69.60;;;;;;;-0.06;64.48;99653.05;108771;1280;21982;-80
2022/12/14 11:10:39;;;;;;;98.90;69.70;;;;;;;-0.39;62.47;99647.40;108720;1280;21951;-82
2022/12/14 11:13:20;;;;;;;88.10;64.40;;;;;;;-0.69;61.57;99638.30;108506;1281;23754;-81
2022/12/14 11:15:51;;;;;;;94.20;68.20;;;;;;;-1.05;61.13;99632.07;108337;1280;23048;-78
2022/12/14 11:18:29;;;;;;;112.50;81.00;;;;;;;-1.28;61.02;99631.94;108613;1278;23848;-81
2022/12/14 11:21:04;;;;;;;121.30;83.40;;;;;;;-1.64;60.36;99633.84;108516;1278;21951;-79
2022/12/14 11:23:39;;;;;;;103.90;69.90;;;;;;;-1.98;60.53;99635.52;108546;1279;21942;-82
2022/12/14 11:26:41;;;;;;;91.40;64.60;;;;;;;-2.26;60.68;99635.63;108439;1280;21947;-81
2022/12/14 11:29:30;;;;;;;90.00;59.60;;;;;;;-2.54;60.85;99628.21;108389;1280;23068;-79
2022/12/14 11:32:00;;;;;;;95.70;63.60;;;;;;;-2.83;60.80;99626.54;108519;1278;22079;-85
2022/12/14 11:34:39;;;;;;;92.50;63.10;;;;;;;-3.03;61.00;99621.67;108267;1279;21944;-82
2022/12/14 11:37:29;;;;;;;94.70;66.00;;;;;;;-3.23;61.24;99622.74;108444;1278;21970;-81
2022/12/14 11:40:02;;;;;;;177.70;113.40;;;;;;;-3.43;61.38;99617.35;108395;1280;21954;-79
2022/12/14 11:42:32;;;;;;;151.30;88.60;;;;;;;-3.54;61.68;99613.34;108363;1278;23614;-81
2022/12/14 11:45:24;;;;;;;127.50;76.00;;;;;;;-3.58;62.11;99608.39;108263;1281;22040;-80
2022/12/14 11:48:12;;;;;;;122.00;73.20;;;;;;;-3.57;62.47;99606.00;108623;1280;21919;-81
2022/12/14 11:50:43;;;;;;;104.50;69.70;;;;;;;-3.54;62.65;99603.65;108702;1276;23615;-80